Allen Jay, North Carolina
Current Conditions -  °F | °C
As of 11:54 AM on Saturday 22 Nov 2014 (Local Time) from KGSO Reporting Station
Broken Clouds Broken Clouds  
Wind Chill: 42°   Ceiling: 25000
Heat Index: 46°   Visibility: 10mi
Dew Point: 13°   Wind: 8mph
Humidity: 26%   Direction: 200°SSW
Pressure: 30.48"   Gusts: NA
Location:  35.9136°N, 79.9465°W
Report Text: KGSO 221654Z 20007KT 10SM BKN250 08/M11 A3048 RMK AO2 SLP324 T00781106
Loading
Personal Weather Stations






























Interactive Weather Map New forecast layout! Learn more

10-Day Weather Forecast

Advertisements
Track Severe Weather on mobile